KHXD

Hilton Head Airport

Hilton Head Island, South Carolina, USA
METAR KHXD 210355Z AUTO 20007G14KT 10SM CLR 28/25 A3009 RMK AO2
Observed Flight Rules
Aug-21 @ 03:55 UTC (17 minutes ago) Visual Flight Rules
Wind Visibility Clouds
200° at 7 knots
 Gusting to 14 knots
10 miles
  • Clear skies
Temperatures Readings
Current 28°C / 82°F
Dewpoint 25°C / 77°F
Humidity 84%
Altimeter 30.09" Hg
Pressure 1019 hPa
Elevation 6
METAR KHXD 210355Z AUTO 20007G14KT 10SM CLR 28/25 A3009 RMK AO2
Observed Flight Rules
Aug-21 @ 03:55 UTC
(17 minutes ago)
VFR
Wind Visibility
200° at 7 knots
 Gusting to 14 knots
10 miles
Clouds
  • Clear skies
Temperature Dewpoint
28°C / 82°F 25°C / 77°F
Humidity Altimeter Pressure
84% 30.09" Hg 1019 hPa